»·PEaware :: N6507W KEED-1Z1

N6507W :: KEED-1Z1

FLIGHT INFORMATION

Flight Status: Arrived
Operator: Privately registered:
United States
More flights under this callsign
Pilot: Jukka N. (18040)
Aircraft: CESSNA 208 CARAVAN
(C208)
More flights by this aircraft type
Origin: KEED Needles
United States
Destination: 1Z1 Grand Canyon Bar Ten
United States
More flights between these airports :: More routes between these airports
Route:
File this flight plan on PilotEdge
Remarks:
Altitude:
(Current/Filed)
7,500ft
Speed:
(Current/Filed)
170kts
Departed: 14-Mar-19 11:47 AM
Arrived: 14-Mar-19 12:39 PM
Distance/Time
Traveled:
113nm/0:52
Distance/Time
To Go:
Arrived

Flight Plot

Page will automatically refresh every two minutes.

Flight plan parsing failed; only flown route is shown


Map Options




Map Legend


Flown Route
Filed Route
Departure Airport
Arrival Airport
Navaid (VOR, NDB)
Fix

Horizontal Profiles

Position Reports

Time Latitude Longitude Heading Altitude Ground
Speed
14-Mar-19 11:43 34.763371 -114.620711 162 987ft 2kts
14-Mar-19 11:44 34.764493 -114.621026 349 987ft 14kts
14-Mar-19 11:45 34.765718 -114.621210 328 987ft 7kts
14-Mar-19 11:46 34.767365 -114.621069 28 987ft 36kts
14-Mar-19 11:47 34.789821 -114.605214 30 1700ft 103kts
14-Mar-19 11:48 34.814868 -114.591137 31 2747ft 107kts
14-Mar-19 11:48 34.834427 -114.572238 46 3502ft 110kts
14-Mar-19 11:50 34.848440 -114.531382 53 4634ft 109kts
14-Mar-19 11:51 34.872297 -114.516167 5 5557ft 100kts
14-Mar-19 11:52 34.897927 -114.502853 27 6447ft 101kts
14-Mar-19 11:52 34.917091 -114.486275 29 7155ft 101kts
14-Mar-19 11:54 34.946365 -114.459635 30 7516ft 128kts
14-Mar-19 11:55 34.975777 -114.432599 29 7506ft 136kts
14-Mar-19 11:55 35.001976 -114.408580 30 7506ft 143kts
14-Mar-19 11:56 35.034528 -114.378674 30 7505ft 146kts
14-Mar-19 11:58 35.072776 -114.343506 30 7504ft 146kts
14-Mar-19 11:58 35.100042 -114.318420 30 7504ft 146kts
14-Mar-19 11:59 35.132923 -114.288130 30 7511ft 147kts
14-Mar-19 12:00 35.165869 -114.258067 30 7511ft 147kts
14-Mar-19 12:01 35.199280 -114.227840 34 7492ft 152kts
14-Mar-19 12:02 35.233247 -114.196412 34 7492ft 153kts
14-Mar-19 12:03 35.267098 -114.165137 34 7492ft 150kts
14-Mar-19 12:04 35.300233 -114.134435 35 7492ft 149kts
14-Mar-19 12:05 35.333355 -114.103744 35 7491ft 149kts
14-Mar-19 12:06 35.366468 -114.073016 35 7491ft 149kts
14-Mar-19 12:07 35.399614 -114.042232 35 7491ft 149kts
14-Mar-19 12:08 35.432644 -114.011526 35 7491ft 149kts
14-Mar-19 12:09 35.465788 -113.980682 35 7491ft 149kts
14-Mar-19 12:10 35.498889 -113.949844 35 7490ft 149kts
14-Mar-19 12:11 35.532129 -113.918845 35 7490ft 149kts
14-Mar-19 12:12 35.565343 -113.887836 35 7490ft 149kts
14-Mar-19 12:13 35.598336 -113.857001 35 7490ft 149kts
14-Mar-19 12:14 35.631371 -113.826093 35 7489ft 149kts
14-Mar-19 12:15 35.664462 -113.795101 35 7489ft 149kts
14-Mar-19 12:16 35.697490 -113.764135 35 7489ft 149kts
14-Mar-19 12:17 35.730771 -113.732964 36 7490ft 153kts
14-Mar-19 12:18 35.765069 -113.700665 36 7489ft 154kts
14-Mar-19 12:19 35.799362 -113.668402 36 7489ft 153kts
14-Mar-19 12:20 35.833461 -113.636291 36 7489ft 153kts
14-Mar-19 12:21 35.867523 -113.604153 36 7488ft 153kts
14-Mar-19 12:22 35.881481 -113.559290 98 7489ft 163kts
14-Mar-19 12:23 35.870641 -113.505928 95 7488ft 163kts
14-Mar-19 12:24 35.870175 -113.450881 84 7488ft 160kts
14-Mar-19 12:25 35.870550 -113.397836 84 7488ft 160kts
14-Mar-19 12:26 35.882250 -113.345959 65 7489ft 156kts
14-Mar-19 12:27 35.897799 -113.295589 65 7489ft 157kts
14-Mar-19 12:28 35.929867 -113.269850 6 7490ft 155kts
14-Mar-19 12:29 35.972884 -113.265150 7 7489ft 155kts
14-Mar-19 12:30 36.015743 -113.260193 7 7489ft 155kts
14-Mar-19 12:31 36.058734 -113.255213 7 7495ft 155kts
14-Mar-19 12:32 36.101842 -113.250198 7 7499ft 156kts
14-Mar-19 12:33 36.144008 -113.242753 17 7265ft 144kts
14-Mar-19 12:34 36.180202 -113.228336 14 6357ft 134kts
14-Mar-19 12:35 36.216027 -113.226290 353 4903ft 124kts
14-Mar-19 12:36 36.239336 -113.229332 347 4339ft 62kts
14-Mar-19 12:37 36.256655 -113.230911 355 4105ft 49kts
14-Mar-19 12:38 36.263456 -113.231194 233 4105ft 0kts
14-Mar-19 12:39 36.263456 -113.231194 234 4105ft 0kts
14-Mar-19 12:40 36.263456 -113.231194 234 4105ft 0kts
14-Mar-19 12:41 36.263456 -113.231194 234 4105ft 0kts
14-Mar-19 12:42 36.263456 -113.231194 234 4105ft 0kts

Navigation Log

Ident Type
Flight plan parsing failed, navigation log unavailable